sensor_id;sensor_type;location;lat;lon;timestamp;P1;durP1;ratioP1;P2;durP2;ratioP2
45043;SDS011;30784;48.490;9.688;2023-03-21T00:00:53;5.95;;;1.67;;
45043;SDS011;30784;48.490;9.688;2023-03-21T00:03:20;4.45;;;1.50;;
45043;SDS011;30784;48.490;9.688;2023-03-21T00:05:45;4.75;;;1.45;;
45043;SDS011;30784;48.490;9.688;2023-03-21T00:08:15;4.40;;;1.60;;
45043;SDS011;30784;48.490;9.688;2023-03-21T00:10:41;3.72;;;1.40;;
45043;SDS011;30784;48.490;9.688;2023-03-21T00:13:07;4.85;;;1.60;;
45043;SDS011;30784;48.490;9.688;2023-03-21T00:15:32;4.85;;;1.70;;
45043;SDS011;30784;48.490;9.688;2023-03-21T00:17:58;4.40;;;1.60;;
45043;SDS011;30784;48.490;9.688;2023-03-21T00:20:35;4.28;;;1.45;;
45043;SDS011;30784;48.490;9.688;2023-03-21T00:23:01;5.07;;;1.73;;
45043;SDS011;30784;48.490;9.688;2023-03-21T00:25:28;5.10;;;1.60;;
45043;SDS011;30784;48.490;9.688;2023-03-21T00:27:53;4.35;;;1.40;;
45043;SDS011;30784;48.490;9.688;2023-03-21T00:30:19;5.20;;;1.70;;
45043;SDS011;30784;48.490;9.688;2023-03-21T00:32:45;4.00;;;1.40;;
45043;SDS011;30784;48.490;9.688;2023-03-21T00:35:11;5.35;;;1.75;;
45043;SDS011;30784;48.490;9.688;2023-03-21T00:37:37;5.72;;;1.60;;
45043;SDS011;30784;48.490;9.688;2023-03-21T00:40:03;4.35;;;1.58;;
45043;SDS011;30784;48.490;9.688;2023-03-21T00:42:35;6.10;;;2.00;;
45043;SDS011;30784;48.490;9.688;2023-03-21T00:45:01;8.93;;;4.07;;
45043;SDS011;30784;48.490;9.688;2023-03-21T00:47:28;7.28;;;2.97;;
45043;SDS011;30784;48.490;9.688;2023-03-21T00:49:53;5.03;;;1.88;;
45043;SDS011;30784;48.490;9.688;2023-03-21T00:52:19;5.32;;;1.70;;
45043;SDS011;30784;48.490;9.688;2023-03-21T00:54:45;5.90;;;1.80;;
45043;SDS011;30784;48.490;9.688;2023-03-21T00:57:11;4.57;;;1.48;;
45043;SDS011;30784;48.490;9.688;2023-03-21T00:59:36;5.28;;;1.55;;
45043;SDS011;30784;48.490;9.688;2023-03-21T01:02:02;5.95;;;1.50;;
45043;SDS011;30784;48.490;9.688;2023-03-21T01:04:31;4.25;;;1.35;;
45043;SDS011;30784;48.490;9.688;2023-03-21T01:06:58;3.85;;;1.33;;
45043;SDS011;30784;48.490;9.688;2023-03-21T01:09:24;3.90;;;1.35;;
45043;SDS011;30784;48.490;9.688;2023-03-21T01:11:51;3.85;;;1.20;;
45043;SDS011;30784;48.490;9.688;2023-03-21T01:14:17;3.53;;;1.35;;
45043;SDS011;30784;48.490;9.688;2023-03-21T01:16:45;4.25;;;1.42;;
45043;SDS011;30784;48.490;9.688;2023-03-21T01:19:12;7.88;;;2.90;;
45043;SDS011;30784;48.490;9.688;2023-03-21T01:21:40;11.75;;;6.07;;
45043;SDS011;30784;48.490;9.688;2023-03-21T01:24:06;9.48;;;4.28;;
45043;SDS011;30784;48.490;9.688;2023-03-21T01:26:31;7.10;;;2.60;;
45043;SDS011;30784;48.490;9.688;2023-03-21T01:28:57;6.78;;;2.35;;
45043;SDS011;30784;48.490;9.688;2023-03-21T01:31:23;4.97;;;1.70;;
45043;SDS011;30784;48.490;9.688;2023-03-21T01:33:48;5.22;;;1.70;;
45043;SDS011;30784;48.490;9.688;2023-03-21T01:36:15;4.63;;;1.60;;
45043;SDS011;30784;48.490;9.688;2023-03-21T01:38:42;4.25;;;1.58;;
45043;SDS011;30784;48.490;9.688;2023-03-21T01:41:13;5.35;;;1.80;;
45043;SDS011;30784;48.490;9.688;2023-03-21T01:43:50;4.88;;;1.50;;
45043;SDS011;30784;48.490;9.688;2023-03-21T01:46:21;5.05;;;1.70;;
45043;SDS011;30784;48.490;9.688;2023-03-21T01:48:58;5.10;;;1.70;;
45043;SDS011;30784;48.490;9.688;2023-03-21T01:51:34;4.78;;;1.50;;
45043;SDS011;30784;48.490;9.688;2023-03-21T01:54:03;5.13;;;1.80;;
45043;SDS011;30784;48.490;9.688;2023-03-21T01:56:33;4.65;;;1.40;;
45043;SDS011;30784;48.490;9.688;2023-03-21T01:59:04;4.43;;;1.67;;
45043;SDS011;30784;48.490;9.688;2023-03-21T02:01:41;4.60;;;1.60;;
45043;SDS011;30784;48.490;9.688;2023-03-21T02:04:08;4.60;;;1.48;;
45043;SDS011;30784;48.490;9.688;2023-03-21T02:06:37;5.57;;;1.55;;
45043;SDS011;30784;48.490;9.688;2023-03-21T02:09:05;5.90;;;1.60;;
45043;SDS011;30784;48.490;9.688;2023-03-21T02:11:34;3.83;;;1.47;;
45043;SDS011;30784;48.490;9.688;2023-03-21T02:14:01;4.47;;;1.58;;
45043;SDS011;30784;48.490;9.688;2023-03-21T02:16:36;4.32;;;1.60;;
45043;SDS011;30784;48.490;9.688;2023-03-21T02:21:55;5.20;;;1.60;;
45043;SDS011;30784;48.490;9.688;2023-03-21T02:24:39;4.20;;;1.50;;
45043;SDS011;30784;48.490;9.688;2023-03-21T02:27:19;2.85;;;1.08;;
45043;SDS011;30784;48.490;9.688;2023-03-21T02:29:59;4.28;;;1.50;;
45043;SDS011;30784;48.490;9.688;2023-03-21T02:35:58;4.70;;;1.40;;
45043;SDS011;30784;48.490;9.688;2023-03-21T02:44:34;4.68;;;1.58;;
45043;SDS011;30784;48.490;9.688;2023-03-21T02:47:08;4.65;;;1.50;;
45043;SDS011;30784;48.490;9.688;2023-03-21T02:49:53;4.50;;;1.50;;
45043;SDS011;30784;48.490;9.688;2023-03-21T02:52:25;4.65;;;1.60;;
45043;SDS011;30784;48.490;9.688;2023-03-21T02:54:54;4.75;;;1.30;;
45043;SDS011;30784;48.490;9.688;2023-03-21T02:57:21;4.22;;;1.50;;
45043;SDS011;30784;48.490;9.688;2023-03-21T02:59:47;5.10;;;1.70;;
45043;SDS011;30784;48.490;9.688;2023-03-21T03:02:14;4.20;;;1.40;;
45043;SDS011;30784;48.490;9.688;2023-03-21T03:04:45;5.20;;;1.45;;
45043;SDS011;30784;48.490;9.688;2023-03-21T03:07:15;4.55;;;1.48;;
45043;SDS011;30784;48.490;9.688;2023-03-21T03:10:10;4.25;;;1.25;;
45043;SDS011;30784;48.490;9.688;2023-03-21T03:12:47;4.05;;;1.30;;
45043;SDS011;30784;48.490;9.688;2023-03-21T03:26:18;4.32;;;1.30;;
45043;SDS011;30784;48.490;9.688;2023-03-21T03:28:55;3.78;;;1.40;;
45043;SDS011;30784;48.490;9.688;2023-03-21T03:31:27;5.03;;;1.42;;
45043;SDS011;30784;48.490;9.688;2023-03-21T03:33:57;6.50;;;1.80;;
45043;SDS011;30784;48.490;9.688;2023-03-21T03:36:31;4.97;;;1.63;;
45043;SDS011;30784;48.490;9.688;2023-03-21T03:39:03;4.75;;;1.50;;
45043;SDS011;30784;48.490;9.688;2023-03-21T03:41:33;5.05;;;1.50;;
45043;SDS011;30784;48.490;9.688;2023-03-21T03:44:09;5.00;;;1.55;;
45043;SDS011;30784;48.490;9.688;2023-03-21T03:46:41;4.78;;;1.48;;
45043;SDS011;30784;48.490;9.688;2023-03-21T03:49:18;4.10;;;1.52;;
45043;SDS011;30784;48.490;9.688;2023-03-21T03:51:53;4.65;;;1.60;;
45043;SDS011;30784;48.490;9.688;2023-03-21T03:54:36;5.25;;;1.80;;
45043;SDS011;30784;48.490;9.688;2023-03-21T03:57:04;6.82;;;1.77;;
45043;SDS011;30784;48.490;9.688;2023-03-21T03:59:32;4.47;;;1.60;;
45043;SDS011;30784;48.490;9.688;2023-03-21T04:01:59;4.90;;;1.70;;
45043;SDS011;30784;48.490;9.688;2023-03-21T04:04:25;5.57;;;1.88;;
45043;SDS011;30784;48.490;9.688;2023-03-21T04:06:53;5.93;;;1.80;;
45043;SDS011;30784;48.490;9.688;2023-03-21T04:09:19;5.55;;;2.30;;
45043;SDS011;30784;48.490;9.688;2023-03-21T04:11:45;6.78;;;3.15;;
45043;SDS011;30784;48.490;9.688;2023-03-21T04:14:11;5.70;;;2.25;;
45043;SDS011;30784;48.490;9.688;2023-03-21T04:16:36;5.25;;;2.28;;
45043;SDS011;30784;48.490;9.688;2023-03-21T04:19:02;5.68;;;1.92;;
45043;SDS011;30784;48.490;9.688;2023-03-21T04:21:28;4.90;;;1.98;;
45043;SDS011;30784;48.490;9.688;2023-03-21T04:23:54;4.47;;;1.80;;
45043;SDS011;30784;48.490;9.688;2023-03-21T04:26:20;4.28;;;1.58;;
45043;SDS011;30784;48.490;9.688;2023-03-21T04:28:47;4.85;;;1.80;;
45043;SDS011;30784;48.490;9.688;2023-03-21T04:31:13;4.78;;;1.65;;
45043;SDS011;30784;48.490;9.688;2023-03-21T04:33:39;4.97;;;1.88;;
45043;SDS011;30784;48.490;9.688;2023-03-21T04:36:05;6.00;;;2.10;;
45043;SDS011;30784;48.490;9.688;2023-03-21T04:38:33;5.45;;;2.10;;
45043;SDS011;30784;48.490;9.688;2023-03-21T04:41:00;5.45;;;2.00;;
45043;SDS011;30784;48.490;9.688;2023-03-21T04:43:27;6.25;;;2.05;;
45043;SDS011;30784;48.490;9.688;2023-03-21T04:45:53;5.93;;;2.38;;
45043;SDS011;30784;48.490;9.688;2023-03-21T04:48:19;6.95;;;2.80;;
45043;SDS011;30784;48.490;9.688;2023-03-21T04:50:48;6.55;;;2.58;;
45043;SDS011;30784;48.490;9.688;2023-03-21T04:53:15;6.40;;;2.20;;
45043;SDS011;30784;48.490;9.688;2023-03-21T04:55:41;5.95;;;2.40;;
45043;SDS011;30784;48.490;9.688;2023-03-21T04:58:06;5.13;;;1.85;;
45043;SDS011;30784;48.490;9.688;2023-03-21T05:00:32;5.55;;;2.15;;
45043;SDS011;30784;48.490;9.688;2023-03-21T05:03:03;5.63;;;2.20;;
45043;SDS011;30784;48.490;9.688;2023-03-21T05:05:32;4.57;;;1.90;;
45043;SDS011;30784;48.490;9.688;2023-03-21T05:07:59;6.55;;;1.95;;
45043;SDS011;30784;48.490;9.688;2023-03-21T05:10:25;5.47;;;2.00;;
45043;SDS011;30784;48.490;9.688;2023-03-21T05:12:50;5.90;;;2.30;;
45043;SDS011;30784;48.490;9.688;2023-03-21T05:15:16;6.55;;;2.50;;
45043;SDS011;30784;48.490;9.688;2023-03-21T05:17:41;6.18;;;2.45;;
45043;SDS011;30784;48.490;9.688;2023-03-21T05:20:08;6.85;;;2.70;;
45043;SDS011;30784;48.490;9.688;2023-03-21T05:22:35;6.32;;;2.30;;
45043;SDS011;30784;48.490;9.688;2023-03-21T05:25:05;6.25;;;2.10;;
45043;SDS011;30784;48.490;9.688;2023-03-21T05:27:32;8.52;;;2.20;;
45043;SDS011;30784;48.490;9.688;2023-03-21T05:30:04;5.25;;;1.88;;
45043;SDS011;30784;48.490;9.688;2023-03-21T05:32:32;5.03;;;1.80;;
45043;SDS011;30784;48.490;9.688;2023-03-21T05:34:58;4.43;;;1.63;;
45043;SDS011;30784;48.490;9.688;2023-03-21T05:37:23;5.82;;;1.73;;
45043;SDS011;30784;48.490;9.688;2023-03-21T05:39:49;5.28;;;1.80;;
45043;SDS011;30784;48.490;9.688;2023-03-21T05:42:15;6.38;;;2.00;;
45043;SDS011;30784;48.490;9.688;2023-03-21T05:44:42;5.35;;;1.90;;
45043;SDS011;30784;48.490;9.688;2023-03-21T05:47:08;6.10;;;2.10;;
45043;SDS011;30784;48.490;9.688;2023-03-21T05:49:34;5.65;;;2.00;;
45043;SDS011;30784;48.490;9.688;2023-03-21T05:52:00;6.50;;;2.13;;
45043;SDS011;30784;48.490;9.688;2023-03-21T05:54:25;5.82;;;2.35;;
45043;SDS011;30784;48.490;9.688;2023-03-21T05:56:51;4.88;;;1.70;;
45043;SDS011;30784;48.490;9.688;2023-03-21T05:59:16;5.93;;;2.00;;
45043;SDS011;30784;48.490;9.688;2023-03-21T06:01:42;4.65;;;1.70;;
45043;SDS011;30784;48.490;9.688;2023-03-21T06:04:08;4.93;;;1.77;;
45043;SDS011;30784;48.490;9.688;2023-03-21T06:06:34;5.15;;;2.00;;
45043;SDS011;30784;48.490;9.688;2023-03-21T06:09:00;7.63;;;2.33;;
45043;SDS011;30784;48.490;9.688;2023-03-21T06:11:26;7.03;;;2.33;;
45043;SDS011;30784;48.490;9.688;2023-03-21T06:13:53;5.88;;;2.13;;
45043;SDS011;30784;48.490;9.688;2023-03-21T06:16:19;6.60;;;2.30;;
45043;SDS011;30784;48.490;9.688;2023-03-21T06:18:44;5.90;;;2.00;;
45043;SDS011;30784;48.490;9.688;2023-03-21T06:21:10;5.82;;;2.40;;
45043;SDS011;30784;48.490;9.688;2023-03-21T06:23:36;4.60;;;1.70;;
45043;SDS011;30784;48.490;9.688;2023-03-21T06:26:02;5.63;;;1.80;;
45043;SDS011;30784;48.490;9.688;2023-03-21T06:28:27;6.82;;;2.00;;
45043;SDS011;30784;48.490;9.688;2023-03-21T06:30:53;9.32;;;2.10;;
45043;SDS011;30784;48.490;9.688;2023-03-21T06:33:18;5.70;;;1.92;;
45043;SDS011;30784;48.490;9.688;2023-03-21T06:35:49;6.75;;;1.80;;
45043;SDS011;30784;48.490;9.688;2023-03-21T06:38:15;5.13;;;1.85;;
45043;SDS011;30784;48.490;9.688;2023-03-21T06:40:41;5.47;;;2.05;;
45043;SDS011;30784;48.490;9.688;2023-03-21T06:43:06;6.47;;;2.35;;
45043;SDS011;30784;48.490;9.688;2023-03-21T06:45:32;6.00;;;2.20;;
45043;SDS011;30784;48.490;9.688;2023-03-21T06:47:57;5.22;;;1.98;;
45043;SDS011;30784;48.490;9.688;2023-03-21T06:50:23;5.18;;;1.80;;
45043;SDS011;30784;48.490;9.688;2023-03-21T06:52:48;5.88;;;1.75;;
45043;SDS011;30784;48.490;9.688;2023-03-21T06:55:15;5.05;;;1.77;;
45043;SDS011;30784;48.490;9.688;2023-03-21T06:57:43;4.95;;;1.77;;
45043;SDS011;30784;48.490;9.688;2023-03-21T07:00:09;7.60;;;1.90;;
45043;SDS011;30784;48.490;9.688;2023-03-21T07:02:36;5.70;;;1.90;;
45043;SDS011;30784;48.490;9.688;2023-03-21T07:05:01;6.47;;;2.10;;
45043;SDS011;30784;48.490;9.688;2023-03-21T07:07:27;6.22;;;2.80;;
45043;SDS011;30784;48.490;9.688;2023-03-21T07:09:53;9.50;;;4.32;;
45043;SDS011;30784;48.490;9.688;2023-03-21T07:12:19;6.93;;;2.80;;
45043;SDS011;30784;48.490;9.688;2023-03-21T07:14:46;7.32;;;2.45;;
45043;SDS011;30784;48.490;9.688;2023-03-21T07:17:11;6.80;;;2.38;;
45043;SDS011;30784;48.490;9.688;2023-03-21T07:19:37;6.43;;;2.55;;
45043;SDS011;30784;48.490;9.688;2023-03-21T07:22:02;6.57;;;2.70;;
45043;SDS011;30784;48.490;9.688;2023-03-21T07:24:28;6.60;;;2.55;;
45043;SDS011;30784;48.490;9.688;2023-03-21T07:26:54;7.32;;;2.92;;
45043;SDS011;30784;48.490;9.688;2023-03-21T07:29:20;17.15;;;6.80;;
45043;SDS011;30784;48.490;9.688;2023-03-21T07:31:47;12.52;;;4.63;;
45043;SDS011;30784;48.490;9.688;2023-03-21T07:34:13;8.73;;;2.80;;
45043;SDS011;30784;48.490;9.688;2023-03-21T07:36:40;7.07;;;2.47;;
45043;SDS011;30784;48.490;9.688;2023-03-21T07:39:06;8.02;;;2.67;;
45043;SDS011;30784;48.490;9.688;2023-03-21T07:41:31;6.00;;;1.90;;
45043;SDS011;30784;48.490;9.688;2023-03-21T07:43:57;6.10;;;2.50;;
45043;SDS011;30784;48.490;9.688;2023-03-21T07:46:23;5.97;;;2.28;;
45043;SDS011;30784;48.490;9.688;2023-03-21T07:48:48;5.25;;;1.92;;
45043;SDS011;30784;48.490;9.688;2023-03-21T07:51:14;6.93;;;2.38;;
45043;SDS011;30784;48.490;9.688;2023-03-21T07:53:40;4.60;;;1.77;;
45043;SDS011;30784;48.490;9.688;2023-03-21T07:56:06;7.82;;;2.28;;
45043;SDS011;30784;48.490;9.688;2023-03-21T07:58:32;5.50;;;1.98;;
45043;SDS011;30784;48.490;9.688;2023-03-21T08:00:58;6.85;;;2.58;;
45043;SDS011;30784;48.490;9.688;2023-03-21T08:03:24;6.10;;;2.50;;
45043;SDS011;30784;48.490;9.688;2023-03-21T08:05:53;6.68;;;2.30;;
45043;SDS011;30784;48.490;9.688;2023-03-21T08:08:19;5.32;;;2.05;;
45043;SDS011;30784;48.490;9.688;2023-03-21T08:10:45;7.43;;;2.90;;
45043;SDS011;30784;48.490;9.688;2023-03-21T08:13:11;11.73;;;4.10;;
45043;SDS011;30784;48.490;9.688;2023-03-21T08:15:36;12.52;;;4.90;;
45043;SDS011;30784;48.490;9.688;2023-03-21T08:18:05;16.38;;;7.10;;
45043;SDS011;30784;48.490;9.688;2023-03-21T08:20:32;19.15;;;8.13;;
45043;SDS011;30784;48.490;9.688;2023-03-21T08:22:57;24.75;;;10.35;;
45043;SDS011;30784;48.490;9.688;2023-03-21T08:25:23;23.67;;;10.10;;
45043;SDS011;30784;48.490;9.688;2023-03-21T08:27:50;15.10;;;6.38;;
45043;SDS011;30784;48.490;9.688;2023-03-21T08:30:25;18.65;;;7.57;;
45043;SDS011;30784;48.490;9.688;2023-03-21T08:32:54;21.20;;;8.20;;
45043;SDS011;30784;48.490;9.688;2023-03-21T08:35:21;10.47;;;3.83;;
45043;SDS011;30784;48.490;9.688;2023-03-21T08:37:47;8.63;;;3.00;;
45043;SDS011;30784;48.490;9.688;2023-03-21T08:40:14;7.13;;;2.50;;
45043;SDS011;30784;48.490;9.688;2023-03-21T08:42:42;28.63;;;10.25;;
45043;SDS011;30784;48.490;9.688;2023-03-21T08:45:08;21.20;;;7.47;;
45043;SDS011;30784;48.490;9.688;2023-03-21T08:47:35;18.48;;;5.93;;
45043;SDS011;30784;48.490;9.688;2023-03-21T08:50:00;13.52;;;5.13;;
45043;SDS011;30784;48.490;9.688;2023-03-21T08:52:27;11.48;;;3.90;;
45043;SDS011;30784;48.490;9.688;2023-03-21T08:54:53;15.15;;;5.53;;
45043;SDS011;30784;48.490;9.688;2023-03-21T08:57:19;9.50;;;3.38;;
45043;SDS011;30784;48.490;9.688;2023-03-21T08:59:45;8.75;;;3.05;;
45043;SDS011;30784;48.490;9.688;2023-03-21T09:02:12;6.35;;;2.55;;
45043;SDS011;30784;48.490;9.688;2023-03-21T09:04:38;7.40;;;3.03;;
45043;SDS011;30784;48.490;9.688;2023-03-21T09:07:04;22.92;;;9.75;;
45043;SDS011;30784;48.490;9.688;2023-03-21T09:09:30;30.70;;;14.13;;
45043;SDS011;30784;48.490;9.688;2023-03-21T09:11:55;23.13;;;10.95;;
45043;SDS011;30784;48.490;9.688;2023-03-21T09:14:21;17.95;;;11.45;;
45043;SDS011;30784;48.490;9.688;2023-03-21T09:16:47;13.38;;;8.93;;
45043;SDS011;30784;48.490;9.688;2023-03-21T09:19:12;9.32;;;4.63;;
45043;SDS011;30784;48.490;9.688;2023-03-21T09:21:38;7.32;;;3.78;;
45043;SDS011;30784;48.490;9.688;2023-03-21T09:24:04;7.90;;;2.90;;
45043;SDS011;30784;48.490;9.688;2023-03-21T09:26:30;6.35;;;2.80;;
45043;SDS011;30784;48.490;9.688;2023-03-21T09:28:57;5.63;;;2.30;;
45043;SDS011;30784;48.490;9.688;2023-03-21T09:31:24;6.30;;;2.42;;
45043;SDS011;30784;48.490;9.688;2023-03-21T09:33:52;5.60;;;2.20;;
45043;SDS011;30784;48.490;9.688;2023-03-21T09:36:19;5.75;;;2.13;;
45043;SDS011;30784;48.490;9.688;2023-03-21T09:38:46;5.57;;;2.20;;
45043;SDS011;30784;48.490;9.688;2023-03-21T09:50:00;6.50;;;2.28;;
45043;SDS011;30784;48.490;9.688;2023-03-21T10:00:34;6.25;;;2.45;;
45043;SDS011;30784;48.490;9.688;2023-03-21T10:03:04;6.50;;;2.42;;
45043;SDS011;30784;48.490;9.688;2023-03-21T10:05:35;6.35;;;2.60;;
45043;SDS011;30784;48.490;9.688;2023-03-21T10:08:08;6.00;;;2.30;;
45043;SDS011;30784;48.490;9.688;2023-03-21T10:10:39;6.78;;;2.22;;
45043;SDS011;30784;48.490;9.688;2023-03-21T10:13:18;5.32;;;1.90;;
45043;SDS011;30784;48.490;9.688;2023-03-21T10:15:48;6.63;;;2.13;;
45043;SDS011;30784;48.490;9.688;2023-03-21T10:18:21;5.32;;;2.17;;
45043;SDS011;30784;48.490;9.688;2023-03-21T10:20:50;9.48;;;4.10;;
45043;SDS011;30784;48.490;9.688;2023-03-21T10:23:17;9.10;;;4.18;;
45043;SDS011;30784;48.490;9.688;2023-03-21T10:25:46;12.40;;;6.70;;
45043;SDS011;30784;48.490;9.688;2023-03-21T10:28:16;6.47;;;2.70;;
45043;SDS011;30784;48.490;9.688;2023-03-21T10:30:48;5.07;;;1.98;;
45043;SDS011;30784;48.490;9.688;2023-03-21T10:33:20;5.63;;;2.38;;
45043;SDS011;30784;48.490;9.688;2023-03-21T10:35:52;5.60;;;2.22;;
45043;SDS011;30784;48.490;9.688;2023-03-21T10:38:22;5.55;;;2.00;;
45043;SDS011;30784;48.490;9.688;2023-03-21T10:40:49;5.53;;;2.20;;
45043;SDS011;30784;48.490;9.688;2023-03-21T10:45:45;6.30;;;2.10;;
45043;SDS011;30784;48.490;9.688;2023-03-21T10:48:11;5.60;;;2.03;;
45043;SDS011;30784;48.490;9.688;2023-03-21T10:50:37;5.55;;;2.03;;
45043;SDS011;30784;48.490;9.688;2023-03-21T10:53:05;5.28;;;1.83;;
45043;SDS011;30784;48.490;9.688;2023-03-21T10:55:39;5.03;;;2.00;;
45043;SDS011;30784;48.490;9.688;2023-03-21T10:58:07;4.85;;;1.67;;
45043;SDS011;30784;48.490;9.688;2023-03-21T11:00:42;5.32;;;1.75;;
45043;SDS011;30784;48.490;9.688;2023-03-21T11:03:22;6.30;;;1.70;;
45043;SDS011;30784;48.490;9.688;2023-03-21T11:05:54;5.13;;;1.60;;
45043;SDS011;30784;48.490;9.688;2023-03-21T11:08:22;4.27;;;1.37;;
45043;SDS011;30784;48.490;9.688;2023-03-21T11:10:59;4.32;;;1.60;;
45043;SDS011;30784;48.490;9.688;2023-03-21T11:13:54;4.82;;;1.70;;
45043;SDS011;30784;48.490;9.688;2023-03-21T11:21:16;4.97;;;1.80;;
45043;SDS011;30784;48.490;9.688;2023-03-21T11:23:45;7.25;;;1.90;;
45043;SDS011;30784;48.490;9.688;2023-03-21T11:26:18;4.43;;;1.65;;
45043;SDS011;30784;48.490;9.688;2023-03-21T11:28:48;4.63;;;1.58;;
45043;SDS011;30784;48.490;9.688;2023-03-21T11:31:15;4.88;;;1.70;;
45043;SDS011;30784;48.490;9.688;2023-03-21T11:33:42;5.07;;;1.70;;
45043;SDS011;30784;48.490;9.688;2023-03-21T11:38:49;4.20;;;1.48;;
45043;SDS011;30784;48.490;9.688;2023-03-21T11:41:23;5.22;;;1.80;;
45043;SDS011;30784;48.490;9.688;2023-03-21T11:43:55;5.15;;;1.70;;
45043;SDS011;30784;48.490;9.688;2023-03-21T11:46:25;4.30;;;1.65;;
45043;SDS011;30784;48.490;9.688;2023-03-21T11:48:53;4.15;;;1.60;;
45043;SDS011;30784;48.490;9.688;2023-03-21T11:54:30;5.03;;;1.80;;
45043;SDS011;30784;48.490;9.688;2023-03-21T11:57:23;4.13;;;1.50;;
45043;SDS011;30784;48.490;9.688;2023-03-21T12:00:18;4.90;;;1.70;;
45043;SDS011;30784;48.490;9.688;2023-03-21T12:05:42;4.95;;;1.77;;
45043;SDS011;30784;48.490;9.688;2023-03-21T12:08:33;4.78;;;1.67;;
45043;SDS011;30784;48.490;9.688;2023-03-21T12:11:21;4.67;;;1.60;;
45043;SDS011;30784;48.490;9.688;2023-03-21T12:14:17;4.15;;;1.42;;
45043;SDS011;30784;48.490;9.688;2023-03-21T12:25:14;3.15;;;1.10;;
45043;SDS011;30784;48.490;9.688;2023-03-21T12:28:04;2.85;;;1.08;;
45043;SDS011;30784;48.490;9.688;2023-03-21T12:30:43;3.42;;;1.25;;
45043;SDS011;30784;48.490;9.688;2023-03-21T12:33:24;3.08;;;1.20;;
45043;SDS011;30784;48.490;9.688;2023-03-21T12:36:31;3.83;;;1.42;;
45043;SDS011;30784;48.490;9.688;2023-03-21T12:39:19;3.85;;;1.38;;
45043;SDS011;30784;48.490;9.688;2023-03-21T12:44:36;4.05;;;1.50;;
45043;SDS011;30784;48.490;9.688;2023-03-21T12:49:38;5.43;;;1.95;;
45043;SDS011;30784;48.490;9.688;2023-03-21T12:52:13;5.85;;;2.10;;
45043;SDS011;30784;48.490;9.688;2023-03-21T12:59:43;4.20;;;1.70;;
45043;SDS011;30784;48.490;9.688;2023-03-21T13:02:16;4.90;;;1.90;;
45043;SDS011;30784;48.490;9.688;2023-03-21T13:07:42;5.47;;;1.77;;
45043;SDS011;30784;48.490;9.688;2023-03-21T13:10:15;6.68;;;2.00;;
45043;SDS011;30784;48.490;9.688;2023-03-21T13:12:49;4.15;;;1.73;;
45043;SDS011;30784;48.490;9.688;2023-03-21T13:15:21;5.30;;;1.80;;
45043;SDS011;30784;48.490;9.688;2023-03-21T13:20:57;4.45;;;1.80;;
45043;SDS011;30784;48.490;9.688;2023-03-21T13:23:32;3.70;;;1.65;;
45043;SDS011;30784;48.490;9.688;2023-03-21T13:25:59;4.93;;;1.90;;
45043;SDS011;30784;48.490;9.688;2023-03-21T13:28:28;4.88;;;1.60;;
45043;SDS011;30784;48.490;9.688;2023-03-21T13:33:50;4.57;;;1.92;;
45043;SDS011;30784;48.490;9.688;2023-03-21T13:36:21;5.22;;;2.10;;
45043;SDS011;30784;48.490;9.688;2023-03-21T13:38:50;5.22;;;2.13;;
45043;SDS011;30784;48.490;9.688;2023-03-21T13:41:29;4.95;;;1.92;;
45043;SDS011;30784;48.490;9.688;2023-03-21T13:51:47;5.35;;;2.03;;
45043;SDS011;30784;48.490;9.688;2023-03-21T13:54:21;5.65;;;2.17;;
45043;SDS011;30784;48.490;9.688;2023-03-21T13:57:03;5.20;;;2.10;;
45043;SDS011;30784;48.490;9.688;2023-03-21T14:04:57;5.85;;;1.83;;
45043;SDS011;30784;48.490;9.688;2023-03-21T14:07:26;4.85;;;1.90;;
45043;SDS011;30784;48.490;9.688;2023-03-21T14:09:59;5.85;;;2.05;;
45043;SDS011;30784;48.490;9.688;2023-03-21T14:12:33;5.38;;;2.05;;
45043;SDS011;30784;48.490;9.688;2023-03-21T14:15:05;5.38;;;2.30;;
45043;SDS011;30784;48.490;9.688;2023-03-21T14:17:37;6.18;;;2.75;;
45043;SDS011;30784;48.490;9.688;2023-03-21T14:23:11;5.75;;;2.20;;
45043;SDS011;30784;48.490;9.688;2023-03-21T14:25:39;6.05;;;2.58;;
45043;SDS011;30784;48.490;9.688;2023-03-21T14:28:11;6.10;;;2.50;;
45043;SDS011;30784;48.490;9.688;2023-03-21T14:30:42;5.50;;;2.17;;
45043;SDS011;30784;48.490;9.688;2023-03-21T14:33:21;6.00;;;2.60;;
45043;SDS011;30784;48.490;9.688;2023-03-21T14:35:51;6.03;;;2.33;;
45043;SDS011;30784;48.490;9.688;2023-03-21T14:38:21;7.63;;;2.47;;
45043;SDS011;30784;48.490;9.688;2023-03-21T14:40:50;5.90;;;2.40;;
45043;SDS011;30784;48.490;9.688;2023-03-21T14:43:19;6.90;;;2.50;;
45043;SDS011;30784;48.490;9.688;2023-03-21T14:45:47;6.50;;;2.60;;
45043;SDS011;30784;48.490;9.688;2023-03-21T14:48:16;6.22;;;2.50;;
45043;SDS011;30784;48.490;9.688;2023-03-21T14:50:45;6.25;;;2.20;;
45043;SDS011;30784;48.490;9.688;2023-03-21T14:53:19;6.57;;;2.55;;
45043;SDS011;30784;48.490;9.688;2023-03-21T14:55:59;5.53;;;2.33;;
45043;SDS011;30784;48.490;9.688;2023-03-21T14:58:33;7.93;;;2.90;;
45043;SDS011;30784;48.490;9.688;2023-03-21T15:01:03;6.57;;;2.45;;
45043;SDS011;30784;48.490;9.688;2023-03-21T15:03:31;5.93;;;2.25;;
45043;SDS011;30784;48.490;9.688;2023-03-21T15:05:57;6.80;;;3.25;;
45043;SDS011;30784;48.490;9.688;2023-03-21T15:08:25;6.65;;;3.00;;
45043;SDS011;30784;48.490;9.688;2023-03-21T15:11:00;6.38;;;2.40;;
45043;SDS011;30784;48.490;9.688;2023-03-21T15:13:32;5.10;;;2.15;;
45043;SDS011;30784;48.490;9.688;2023-03-21T15:16:13;5.43;;;2.22;;
45043;SDS011;30784;48.490;9.688;2023-03-21T15:18:39;6.57;;;2.38;;
45043;SDS011;30784;48.490;9.688;2023-03-21T15:21:08;7.80;;;3.42;;
45043;SDS011;30784;48.490;9.688;2023-03-21T15:23:44;6.07;;;2.50;;
45043;SDS011;30784;48.490;9.688;2023-03-21T15:26:13;6.30;;;2.35;;
45043;SDS011;30784;48.490;9.688;2023-03-21T15:28:41;5.95;;;2.13;;
45043;SDS011;30784;48.490;9.688;2023-03-21T15:31:20;7.15;;;2.88;;
45043;SDS011;30784;48.490;9.688;2023-03-21T15:33:48;6.60;;;2.50;;
45043;SDS011;30784;48.490;9.688;2023-03-21T15:36:20;5.30;;;2.05;;
45043;SDS011;30784;48.490;9.688;2023-03-21T15:38:49;5.70;;;2.15;;
45043;SDS011;30784;48.490;9.688;2023-03-21T15:43:43;6.68;;;2.35;;
45043;SDS011;30784;48.490;9.688;2023-03-21T15:46:16;6.60;;;2.13;;
45043;SDS011;30784;48.490;9.688;2023-03-21T15:51:39;7.95;;;2.90;;
45043;SDS011;30784;48.490;9.688;2023-03-21T15:54:12;7.03;;;2.78;;
45043;SDS011;30784;48.490;9.688;2023-03-21T15:56:41;6.10;;;2.35;;
45043;SDS011;30784;48.490;9.688;2023-03-21T15:59:11;8.40;;;4.07;;
45043;SDS011;30784;48.490;9.688;2023-03-21T16:01:39;8.65;;;3.42;;
45043;SDS011;30784;48.490;9.688;2023-03-21T16:04:05;7.15;;;3.05;;
45043;SDS011;30784;48.490;9.688;2023-03-21T16:06:37;6.22;;;2.72;;
45043;SDS011;30784;48.490;9.688;2023-03-21T16:09:08;5.28;;;2.10;;
45043;SDS011;30784;48.490;9.688;2023-03-21T16:11:39;5.75;;;2.10;;
45043;SDS011;30784;48.490;9.688;2023-03-21T16:14:05;5.72;;;2.22;;
45043;SDS011;30784;48.490;9.688;2023-03-21T16:16:31;6.00;;;2.20;;
45043;SDS011;30784;48.490;9.688;2023-03-21T16:18:57;7.40;;;2.15;;
45043;SDS011;30784;48.490;9.688;2023-03-21T16:21:25;5.55;;;2.22;;
45043;SDS011;30784;48.490;9.688;2023-03-21T16:23:52;5.95;;;2.30;;
45043;SDS011;30784;48.490;9.688;2023-03-21T16:26:22;4.90;;;1.98;;
45043;SDS011;30784;48.490;9.688;2023-03-21T16:28:50;5.60;;;1.90;;
45043;SDS011;30784;48.490;9.688;2023-03-21T16:31:17;5.28;;;2.10;;
45043;SDS011;30784;48.490;9.688;2023-03-21T16:33:45;5.97;;;2.33;;
45043;SDS011;30784;48.490;9.688;2023-03-21T16:36:12;8.60;;;2.00;;
45043;SDS011;30784;48.490;9.688;2023-03-21T16:38:48;4.95;;;1.80;;
45043;SDS011;30784;48.490;9.688;2023-03-21T16:41:16;5.80;;;1.90;;
45043;SDS011;30784;48.490;9.688;2023-03-21T16:43:42;6.35;;;2.20;;